createdAt,value
2022-10-18T00:01:55.148Z,68.00
2022-10-18T00:16:56.117Z,67.40
2022-10-18T00:34:22.655Z,67.50
2022-10-18T00:39:21.787Z,67.40
2022-10-18T00:44:56.470Z,67.60
2022-10-18T00:49:58.860Z,67.40
2022-10-18T00:52:33.014Z,81.80
2022-10-18T00:55:02.340Z,67.20
2022-10-18T01:04:58.528Z,67.00
2022-10-18T01:07:40.250Z,67.30
2022-10-18T01:10:21.242Z,67.50
2022-10-18T01:12:57.952Z,67.80
2022-10-18T01:15:31.591Z,67.60
2022-10-18T01:18:08.632Z,67.80
2022-10-18T01:21:18.704Z,68.10
2022-10-18T01:24:05.618Z,68.30
2022-10-18T01:26:47.813Z,68.00
2022-10-18T01:29:29.823Z,68.10
2022-10-18T01:32:02.709Z,68.40
2022-10-18T01:34:34.946Z,68.20
2022-10-18T01:37:05.809Z,68.10
2022-10-18T01:39:39.661Z,68.10
2022-10-18T01:42:12.647Z,68.20
2022-10-18T01:44:42.749Z,68.10
2022-10-18T01:47:14.942Z,67.80
2022-10-18T01:52:14.494Z,82.20
2022-10-18T01:54:48.350Z,67.70
2022-10-18T01:57:25.042Z,67.60
2022-10-18T01:59:59.414Z,68.20
2022-10-18T02:02:41.435Z,83.10
2022-10-18T02:05:19.210Z,67.80
2022-10-18T02:08:00.416Z,67.60
2022-10-18T02:10:44.663Z,67.80
2022-10-18T02:13:17.339Z,67.90
2022-10-18T02:15:49.648Z,68.10
2022-10-18T02:18:24.714Z,67.90
2022-10-18T02:20:53.958Z,68.30
2022-10-18T02:23:26.048Z,68.20
2022-10-18T02:25:55.103Z,68.60
2022-10-18T02:30:59.751Z,86.20
2022-10-18T02:33:35.438Z,68.50
2022-10-18T02:36:09.062Z,84.10
2022-10-18T02:46:04.741Z,68.20
2022-10-18T02:48:34.496Z,86.50
2022-10-18T03:05:55.357Z,68.40
2022-10-18T03:15:49.767Z,83.70
2022-10-18T03:23:16.300Z,68.50
2022-10-18T03:40:38.777Z,68.60
2022-10-18T03:57:59.282Z,68.50
2022-10-18T04:02:56.174Z,83.20
2022-10-18T04:12:52.565Z,85.70
2022-10-18T04:15:22.552Z,69.00
2022-10-18T04:20:19.456Z,87.20
2022-10-18T04:22:49.966Z,83.80
2022-10-18T04:32:45.216Z,68.80
2022-10-18T04:37:42.109Z,83.50
2022-10-18T04:40:11.458Z,69.90
2022-10-18T04:45:09.605Z,71.50
2022-10-18T04:50:10.266Z,84.90
2022-10-18T04:55:08.143Z,85.00
2022-10-18T05:02:59.595Z,70.60
2022-10-18T05:05:49.602Z,70.70
2022-10-18T05:20:42.189Z,71.00
2022-10-18T05:23:17.608Z,70.90
2022-10-18T05:26:16.156Z,71.10
2022-10-18T05:31:42.029Z,71.90
2022-10-18T05:34:24.809Z,85.60
2022-10-18T05:36:59.869Z,71.20
2022-10-18T05:41:56.489Z,86.60
2022-10-18T05:49:21.730Z,88.90
2022-10-18T05:51:49.785Z,86.90
2022-10-18T05:54:19.418Z,78.60
2022-10-18T05:56:47.491Z,88.20
2022-10-18T05:59:17.890Z,72.00
2022-10-18T06:01:47.550Z,86.40
2022-10-18T06:11:45.146Z,71.70
2022-10-18T06:24:08.176Z,85.90
2022-10-18T06:29:06.418Z,71.50
2022-10-18T06:34:03.144Z,89.80
2022-10-18T06:44:13.679Z,71.60
2022-10-18T06:59:18.375Z,71.90
2022-10-18T07:16:11.596Z,71.80
2022-10-18T07:22:20.093Z,86.70
2022-10-18T07:24:53.863Z,85.90
2022-10-18T07:27:24.453Z,86.00
2022-10-18T07:32:42.387Z,89.40
2022-10-18T07:40:09.757Z,89.40
2022-10-18T07:43:22.361Z,71.40
2022-10-18T07:45:55.449Z,71.20
2022-10-18T07:48:25.121Z,71.10
2022-10-18T07:50:54.080Z,71.30
2022-10-18T08:05:54.146Z,71.50
2022-10-18T08:08:23.437Z,71.30
2022-10-18T08:20:48.362Z,71.10
2022-10-18T08:38:16.563Z,70.70
2022-10-18T08:43:23.807Z,70.50
2022-10-18T08:45:53.709Z,70.70
2022-10-18T08:48:31.923Z,71.90
2022-10-18T08:51:03.889Z,74.00
2022-10-18T08:53:40.133Z,71.30
2022-10-18T08:56:14.828Z,71.30
2022-10-18T08:58:45.433Z,71.20
2022-10-18T09:01:36.415Z,71.40
2022-10-18T09:04:34.452Z,84.30
2022-10-18T09:07:20.055Z,70.90
2022-10-18T09:09:58.496Z,69.90
2022-10-18T09:12:42.916Z,68.70
2022-10-18T09:15:17.959Z,67.50
2022-10-18T09:18:06.288Z,66.10
2022-10-18T09:20:42.400Z,65.80
2022-10-18T09:23:19.829Z,65.20
2022-10-18T09:25:52.894Z,63.40
2022-10-18T09:28:29.622Z,65.30
2022-10-18T09:31:08.417Z,62.00
2022-10-18T09:33:48.018Z,60.80
2022-10-18T09:36:19.589Z,60.70
2022-10-18T09:38:51.341Z,57.60
2022-10-18T09:41:26.808Z,58.70
2022-10-18T09:44:00.012Z,56.60
2022-10-18T09:46:32.745Z,68.10
2022-10-18T09:49:05.887Z,57.70
2022-10-18T09:51:37.393Z,56.30
2022-10-18T09:54:17.150Z,55.00
2022-10-18T09:56:51.793Z,54.40
2022-10-18T09:59:33.770Z,54.90
2022-10-18T10:07:02.418Z,54.50
2022-10-18T10:10:38.228Z,53.70
2022-10-18T10:13:22.902Z,53.50
2022-10-18T10:15:55.889Z,53.20
2022-10-18T10:18:30.039Z,52.90
2022-10-18T10:21:01.469Z,53.00
2022-10-18T10:23:33.954Z,52.10
2022-10-18T10:26:05.158Z,51.90
2022-10-18T10:28:37.418Z,51.70
2022-10-18T10:31:22.111Z,51.50
2022-10-18T10:34:00.467Z,51.80
2022-10-18T10:39:08.446Z,50.50
2022-10-18T10:44:16.853Z,49.30
2022-10-18T10:46:49.631Z,49.60
2022-10-18T10:49:39.274Z,49.30
2022-10-18T10:55:05.694Z,47.70
2022-10-18T10:57:47.298Z,47.90
2022-10-18T11:00:37.550Z,46.40
2022-10-18T11:03:40.958Z,46.10
2022-10-18T11:07:30.022Z,45.70
2022-10-18T11:11:13.101Z,46.00
2022-10-18T11:18:34.669Z,44.00
2022-10-18T11:21:08.265Z,43.60
2022-10-18T11:23:38.664Z,53.70
2022-10-18T11:26:29.313Z,43.70
2022-10-18T11:29:27.545Z,43.20
2022-10-18T11:32:16.202Z,43.40
2022-10-18T11:35:16.475Z,42.00
2022-10-18T11:38:14.219Z,50.80
2022-10-18T11:41:01.659Z,41.50
2022-10-18T11:44:32.029Z,49.20
2022-10-18T11:47:15.389Z,41.00
2022-10-18T11:49:58.376Z,49.10
2022-10-18T11:53:14.453Z,40.10
2022-10-18T11:56:36.617Z,41.30
2022-10-18T11:59:21.282Z,40.10
2022-10-18T12:02:23.006Z,48.00
2022-10-18T12:05:22.096Z,40.00
2022-10-18T12:07:54.609Z,42.40
2022-10-18T12:10:37.880Z,41.60
2022-10-18T12:13:19.834Z,41.90
2022-10-18T12:15:51.098Z,41.90
2022-10-18T12:18:28.727Z,41.30
2022-10-18T12:21:36.209Z,42.50
2022-10-18T12:24:15.316Z,42.50
2022-10-18T12:27:00.281Z,42.90
2022-10-18T12:29:38.082Z,45.20
2022-10-18T12:32:12.906Z,44.30
2022-10-18T12:34:56.072Z,44.10
2022-10-18T12:38:13.503Z,44.00
2022-10-18T12:40:48.229Z,44.20
2022-10-18T12:43:37.152Z,44.50
2022-10-18T12:46:13.810Z,44.50
2022-10-18T12:49:41.409Z,44.50
2022-10-18T13:04:06.475Z,45.50
2022-10-18T13:07:17.351Z,45.40
2022-10-18T13:10:41.174Z,45.70
2022-10-18T13:14:00.239Z,46.30
2022-10-18T13:17:32.940Z,56.30
2022-10-18T13:20:26.489Z,46.70
2022-10-18T13:23:49.147Z,46.50
2022-10-18T13:26:39.080Z,51.00
2022-10-18T13:30:15.807Z,46.10
2022-10-18T13:33:15.820Z,46.60
2022-10-18T13:36:05.990Z,46.80
2022-10-18T13:39:11.731Z,46.60
2022-10-18T13:42:20.094Z,46.20
2022-10-18T13:45:17.724Z,46.70
2022-10-18T13:48:11.382Z,49.00
2022-10-18T13:50:56.000Z,47.00
2022-10-18T13:53:54.579Z,55.00
2022-10-18T13:56:47.745Z,46.20
2022-10-18T13:59:45.789Z,46.30
2022-10-18T14:02:51.001Z,46.00
2022-10-18T14:05:43.076Z,46.20
2022-10-18T14:08:18.697Z,56.10
2022-10-18T14:14:36.713Z,50.00
2022-10-18T14:20:49.019Z,52.80
2022-10-18T14:33:25.651Z,56.20
2022-10-18T14:36:18.208Z,57.60
2022-10-18T14:38:54.452Z,57.80
2022-10-18T14:41:35.447Z,61.60
2022-10-18T14:44:27.258Z,59.30
2022-10-18T14:47:03.332Z,59.60
2022-10-18T14:50:05.130Z,59.80
2022-10-18T14:52:52.918Z,60.50
2022-10-18T14:55:27.948Z,63.00
2022-10-18T14:58:16.408Z,61.70
2022-10-18T15:00:53.052Z,61.30
2022-10-18T15:03:23.411Z,61.60
2022-10-18T15:06:11.557Z,61.50
2022-10-18T15:09:08.600Z,61.40
2022-10-18T15:11:47.329Z,62.30
2022-10-18T15:14:31.464Z,62.30
2022-10-18T15:17:15.272Z,65.50
2022-10-18T15:20:23.366Z,63.20
2022-10-18T15:22:54.775Z,64.50
2022-10-18T15:25:40.331Z,63.10
2022-10-18T15:28:31.785Z,63.70
2022-10-18T15:33:34.971Z,64.00
2022-10-18T15:36:12.071Z,64.30
2022-10-18T15:41:39.805Z,64.20
2022-10-18T15:44:25.574Z,65.40
2022-10-18T15:47:13.776Z,67.40
2022-10-18T15:50:05.298Z,66.20
2022-10-18T15:52:43.230Z,64.20
2022-10-18T15:55:59.062Z,64.30
2022-10-18T15:58:30.037Z,64.30
2022-10-18T16:01:04.477Z,63.80
2022-10-18T16:06:18.955Z,63.10
2022-10-18T16:08:50.405Z,62.70
2022-10-18T16:11:27.454Z,62.60
2022-10-18T16:14:22.621Z,62.90
2022-10-18T16:17:23.422Z,62.70
2022-10-18T16:20:31.520Z,62.60
2022-10-18T16:23:36.990Z,62.10
2022-10-18T16:27:01.077Z,62.40
2022-10-18T16:30:29.926Z,62.20
2022-10-18T16:33:25.394Z,62.50
2022-10-18T16:37:04.209Z,62.20
2022-10-18T16:39:52.647Z,63.60
2022-10-18T16:45:41.524Z,62.30
2022-10-18T16:48:35.335Z,62.30
2022-10-18T16:56:31.369Z,62.60
2022-10-18T16:59:12.756Z,62.70
2022-10-18T17:02:59.570Z,62.60
2022-10-18T17:06:53.563Z,62.30
2022-10-18T17:13:30.221Z,62.00
2022-10-18T17:16:08.527Z,62.00
2022-10-18T17:28:44.645Z,61.80
2022-10-18T17:33:41.967Z,61.80
2022-10-18T17:39:06.357Z,61.80
2022-10-18T17:44:06.097Z,61.90
2022-10-18T17:51:31.277Z,74.70
2022-10-18T17:57:34.285Z,62.40
2022-10-18T18:00:34.526Z,62.60
2022-10-18T18:05:35.528Z,79.80
2022-10-18T18:10:58.985Z,63.60
2022-10-18T18:16:58.617Z,63.70
2022-10-18T18:22:01.749Z,76.80
2022-10-18T18:24:33.052Z,64.30
2022-10-18T18:32:38.184Z,64.50
2022-10-18T18:37:37.926Z,76.10
2022-10-18T18:40:07.175Z,64.10
2022-10-18T18:50:08.211Z,64.30
2022-10-18T18:52:51.372Z,63.90
2022-10-18T18:55:20.510Z,64.00
2022-10-18T18:57:50.829Z,64.90
2022-10-18T19:00:27.870Z,76.30
2022-10-18T19:03:38.673Z,64.30
2022-10-18T19:10:02.856Z,64.20
2022-10-18T19:28:37.990Z,64.80
2022-10-18T19:35:05.272Z,64.60
2022-10-18T19:45:05.358Z,65.50
2022-10-18T19:50:18.904Z,65.10
2022-10-18T19:57:17.263Z,65.30
2022-10-18T20:02:16.083Z,65.70
2022-10-18T20:19:41.517Z,79.50
2022-10-18T20:22:09.614Z,79.20
2022-10-18T20:29:37.238Z,80.20
2022-10-18T20:37:03.351Z,67.10
2022-10-18T20:42:02.828Z,67.30
2022-10-18T20:44:33.927Z,80.80
2022-10-18T20:47:01.988Z,81.50
2022-10-18T20:52:00.568Z,68.30
2022-10-18T20:54:30.044Z,80.90
2022-10-18T20:56:58.196Z,84.10
2022-10-18T20:59:26.300Z,81.20
2022-10-18T21:04:22.854Z,81.10
2022-10-18T21:06:50.985Z,82.50
2022-10-18T21:09:21.363Z,68.30
2022-10-18T21:11:53.811Z,68.20
2022-10-18T21:14:23.536Z,80.90
2022-10-18T21:16:53.035Z,81.40
2022-10-18T21:19:25.413Z,68.40
2022-10-18T21:22:43.797Z,81.20
2022-10-18T21:27:41.774Z,68.50
2022-10-18T21:32:43.968Z,81.30
2022-10-18T21:35:12.993Z,85.30
2022-10-18T21:40:12.793Z,69.30
2022-10-18T21:42:42.578Z,82.00
2022-10-18T21:50:08.976Z,81.50
2022-10-18T21:55:07.748Z,81.70
2022-10-18T22:00:08.611Z,68.70
2022-10-18T22:02:38.019Z,82.30
2022-10-18T22:05:08.384Z,85.40
2022-10-18T22:10:09.106Z,85.70
2022-10-18T22:15:08.566Z,69.50
2022-10-18T22:17:37.378Z,82.70
2022-10-18T22:20:06.904Z,69.70
2022-10-18T22:32:31.177Z,70.30
2022-10-18T22:49:51.876Z,70.60
2022-10-18T23:02:14.602Z,85.00
2022-10-18T23:07:12.678Z,85.10
2022-10-18T23:12:14.446Z,84.90
2022-10-18T23:24:38.726Z,71.70
2022-10-18T23:27:12.953Z,84.90
2022-10-18T23:32:10.040Z,88.50
2022-10-18T23:39:35.240Z,88.40
2022-10-18T23:42:04.892Z,71.90
2022-10-18T23:54:27.105Z,84.60
2022-10-18T23:56:55.256Z,84.70
2022-10-18T23:59:24.778Z,71.60
